広島空港の過去48時間の天気

広島空港 (New hiroshima)

現在時刻: 2/1 07:46 JST (1/31 22:46 UTC) 以下の時間は現地時間です。

過去48時間のMETAR気象情報
時間 風向 風速(m/s) 視程 気温(℃) 湿度(%) 気圧(hPa) 天気現象
1 07:00 不定 1 10km以上 2 81 1016
1 06:10 北西 2 10km以上 2 75 1016
31 22:00 1 10km以上 1 75 1018
31 21:00 北西 2 10km以上 1 80 1018
31 20:00 不定 1 10km以上 1 75 1018
31 19:00 不定 1 10km以上 3 65 1018
31 18:00 不定 1 10km以上 3 70 1018
31 17:00 南南西 3 10km以上 5 61 1018
31 16:00 3 10km以上 5 56 1018
31 15:00 不定 2 10km以上 5 56 1018
31 14:00 不定 2 10km以上 5 56 1018
31 13:00 南南西 3 10km以上 8 46 1018
31 12:00 2 10km以上 5 52 1019
31 11:00 東南東 3 10km以上 4 56 1020
31 10:00 南東 2 10km以上 3 70 1020
31 09:00 不定 1 10km以上 2 69 1020
31 08:00 北西 3 10km以上 -1 86 1020
31 07:00 北西 3 10km以上 -3 86 1020
31 06:10 北西 3 10km以上 -3 93 1020
30 22:00 不定 1 10km以上 0 80 1020
30 21:00 北西 3 10km以上 0 80 1019
30 20:00 北北西 2 10km以上 1 80 1019 弱いしゅう雪
30 19:00 西北西 2 10km以上 0 74 1019
30 18:00 北西 5 10km以上 1 75 1018
30 17:00 北西 6 10km以上 3 60 1017
30 16:00 西北西 6 10km以上 4 60 1017
30 15:00 西北西 7 10km以上 4 56 1017 周辺でしゅう雨
30 14:07 北北西 5 10km以上 5 52 1017 弱いしゅう雪
30 14:00 西北西 10 10km以上 5 52 1017 弱いしゅう雪
30 13:32 西北西 8 10km以上 5 48 1016
30 13:00 西北西 8 10km以上 6 45 1017
30 12:00 西 7 10km以上 5 56 1017
30 11:42 西北西 8 10km以上 5 56 1017
30 11:00 西北西 6 10km以上 4 65 1018
30 10:00 西 6 10km以上 3 70 1018 弱いしゅう雪
30 09:00 西北西 5 10km以上 1 93 1017
30 08:00 西北西 4 10km以上 0 93 1017 弱いしゅう雪
RJOA 312200Z VRB02KT 9999 FEW020 BKN/// 02/M01 Q1016
RJOA 312110Z 31003KT 9999 FEW020 BKN/// 02/M02 Q1016 RMK 1CU020 A3003
RJOA 311300Z 35002KT 9999 FEW030 01/M03 Q1018
RJOA 311200Z 32003KT 9999 FEW030 01/M02 Q1018
RJOA 311100Z VRB02KT 9999 FEW030 01/M03 Q1018
RJOA 311000Z VRB02KT 9999 FEW030 03/M03 Q1018
RJOA 310900Z VRB02KT 9999 FEW030 03/M02 Q1018
RJOA 310800Z 20005KT 150V250 9999 FEW030 05/M02 Q1018
RJOA 310700Z 19005KT 130V270 9999 FEW030 SCT045 05/M03 Q1018
RJOA 310600Z VRB03KT 9999 FEW030 BKN045 05/M03 Q1018
RJOA 310500Z VRB04KT 9999 FEW030 BKN045 05/M03 Q1018
RJOA 310400Z 20005KT 150V290 9999 FEW030 BKN045 08/M03 Q1018
RJOA 310300Z 17004KT 110V290 9999 FEW025 BKN035 05/M04 Q1019
RJOA 310200Z 11005KT 030V170 9999 FEW025 04/M04 Q1020
RJOA 310100Z 14004KT 090V230 9999 FEW025 03/M02 Q1020
RJOA 310000Z VRB02KT 9999 FEW020 02/M03 Q1020
RJOA 302300Z 31005KT 9999 FEW020 M01/M03 Q1020
RJOA 302200Z 32005KT 9999 FEW020 M03/M05 Q1020
RJOA 302110Z 31005KT 9999 FEW020 M03/M04 Q1020 RMK 1CU020 A3013
RJOA 301300Z VRB02KT 9999 FEW045 M00/M03 Q1020
RJOA 301200Z 31005KT 9999 FEW020 00/M03 Q1019
RJOA 301100Z 34004KT 320V030 9999 -SHSN FEW030 SCT040 01/M02 Q1019
RJOA 301000Z 29004KT 9999 FEW025 SCT060 00/M04 Q1019
RJOA 300900Z 31010KT 9999 FEW025 01/M03 Q1018
RJOA 300800Z 32011KT 9999 FEW025 SCT035 03/M04 Q1017
RJOA 300700Z 29011KT 270V330 9999 FEW025 SCT040 04/M03 Q1017
RJOA 300600Z 30013KT 9999 VCSH FEW020 BKN045 04/M04 Q1017
RJOA 300507Z 33009KT 9999 -SHSN FEW025 BKN040 05/M04 Q1017 RMK 1CU025 5CU040 A3003
RJOA 300500Z 29019KT 9999 -SHSN FEW025 BKN040 05/M04 Q1017
RJOA 300432Z 29016G28KT 9999 FEW025 BKN040 05/M05 Q1016 RMK 1CU025 5CU040 A3003
RJOA 300400Z 29015KT 240V310 9999 FEW025 SCT035 06/M05 Q1017
RJOA 300300Z 27014G24KT 250V320 9999 FEW025 BKN035 05/M03 Q1017
RJOA 300242Z 29016G26KT 9999 FEW015 SCT030 05/M03 Q1017 RMK 1CU015 3CU030 A3005
RJOA 300200Z 29012KT 250V320 9999 FEW015 SCT030 04/M02 Q1018
RJOA 300100Z 26011KT 9999 -SHSN FEW015 SCT040 03/M02 Q1018
RJOA 300000Z 29009KT 9999 FEW020 01/M00 Q1017
RJOA 292300Z 29007KT 9999 -SHSN FEW015 SCT025 BKN060 M00/M01 Q1017